Fuerteventura (La Oliva), Spain
Current Conditions -  °F | °C
As of 12:30 PM on Monday 20 Oct 2014 (Local Time) from GCFV Reporting Station
Few Clouds Few Clouds  
Wind Chill: 79°   Ceiling: Unl
Heat Index: 81°   Visibility: 6mi
Dew Point: 66°   Wind: 16mph
Humidity: 65%   Direction: 150°SSE
Pressure: 29.97"   Gusts: NA
Location:  28.6°N, 13.93°W
Report Text: GCFV 201130Z 15014KT 9999 FEW025 26/19 Q1015
Loading
Personal Weather Stations






























Interactive Weather Map New forecast layout! Learn more

10-Day Weather Forecast

Advertisements
Track Severe Weather on mobile